Time;durP1;ratioP1;P1;durP2;ratioP2;P2;SDS_P1;SDS_P2;PMS_P1;PMS_P2;Temp;Humidity;BMP_temperature;BMP_pressure;BME280_temperature;BME280_humidity;BME280_pressure;Samples;Min_cycle;Max_cycle;Signal;HPM_P1;HPM_P2
2023/05/14 00:01:03;;;;;;;81.72;31.35;;;;;;;12.35;100.00;102092.41;5055124;28;20049;-43
2023/05/14 00:03:28;;;;;;;69.13;30.30;;;;;;;12.36;100.00;102090.53;5064341;28;20398;-43
2023/05/14 00:05:54;;;;;;;68.43;31.05;;;;;;;12.34;100.00;102096.09;5063626;28;20033;-44
2023/05/14 00:08:19;;;;;;;65.90;30.10;;;;;;;12.32;100.00;102099.94;5060288;28;20032;-42
2023/05/14 00:10:44;;;;;;;68.97;29.60;;;;;;;12.29;100.00;102098.41;5067650;28;20033;-45
2023/05/14 00:13:10;;;;;;;76.35;29.83;;;;;;;12.28;100.00;102091.34;5055208;28;20025;-44
2023/05/14 00:15:36;;;;;;;79.60;29.42;;;;;;;12.29;100.00;102084.94;5052074;28;20442;-45
2023/05/14 00:18:01;;;;;;;72.28;29.42;;;;;;;12.28;100.00;102076.00;5054096;28;20037;-43
2023/05/14 00:20:27;;;;;;;74.43;29.25;;;;;;;12.28;100.00;102076.00;5054162;28;20356;-46
2023/05/14 00:22:52;;;;;;;71.85;29.95;;;;;;;12.22;100.00;102070.41;5055514;28;20063;-41
2023/05/14 00:25:18;;;;;;;64.15;28.30;;;;;;;12.18;100.00;102077.13;5059851;28;20458;-44
2023/05/14 00:27:43;;;;;;;98.22;32.00;;;;;;;12.15;100.00;102072.06;5035049;28;20106;-42
2023/05/14 00:30:09;;;;;;;79.47;31.52;;;;;;;12.15;100.00;102070.19;5055172;28;20451;-46
2023/05/14 00:32:34;;;;;;;84.20;32.88;;;;;;;12.12;100.00;102073.22;5066085;28;20113;-42
2023/05/14 00:35:01;;;;;;;81.35;32.08;;;;;;;12.12;100.00;102077.78;5066035;28;20414;-44
2023/05/14 00:37:27;;;;;;;77.07;29.80;;;;;;;12.10;100.00;102071.69;5050351;28;20040;-47
2023/05/14 00:39:52;;;;;;;82.35;31.65;;;;;;;12.16;100.00;102069.19;5061642;28;20028;-47
2023/05/14 00:42:17;;;;;;;71.53;30.05;;;;;;;12.12;100.00;102067.84;5054217;28;20116;-44
2023/05/14 00:44:43;;;;;;;68.43;29.10;;;;;;;12.08;100.00;102067.31;5061658;28;20394;-42
2023/05/14 00:47:09;;;;;;;65.28;27.85;;;;;;;12.05;100.00;102059.53;5066507;28;20037;-44
2023/05/14 00:49:35;;;;;;;71.30;29.73;;;;;;;12.02;100.00;102059.84;5050957;28;20029;-41
2023/05/14 00:52:00;;;;;;;68.38;27.83;;;;;;;12.02;100.00;102073.34;5068009;28;20028;-41
2023/05/14 00:54:26;;;;;;;74.82;27.17;;;;;;;12.00;100.00;102067.25;5055881;28;20032;-43
2023/05/14 00:56:52;;;;;;;62.80;26.63;;;;;;;11.98;100.00;102063.91;5055621;28;20041;-44
2023/05/14 00:59:17;;;;;;;65.95;27.58;;;;;;;11.97;100.00;102055.94;5067347;28;20348;-43
2023/05/14 01:01:42;;;;;;;70.43;27.25;;;;;;;11.97;100.00;102050.56;5065628;28;20029;-47
2023/05/14 01:04:08;;;;;;;65.45;27.15;;;;;;;11.94;100.00;102056.28;5053060;28;20049;-44
2023/05/14 01:06:54;;;;;;;65.13;26.13;;;;;;;11.92;100.00;102052.88;5062517;28;20128;-42
2023/05/14 01:09:31;;;;;;;68.75;25.60;;;;;;;11.91;100.00;102062.84;5056487;28;20033;-42
2023/05/14 01:12:07;;;;;;;57.10;24.27;;;;;;;11.88;100.00;102063.16;5064962;28;20074;-47
2023/05/14 01:14:38;;;;;;;59.20;25.40;;;;;;;11.90;100.00;102061.16;5061135;28;20029;-43
2023/05/14 01:17:05;;;;;;;68.30;24.15;;;;;;;11.89;100.00;102059.44;5058408;28;20028;-45
2023/05/14 01:19:38;;;;;;;60.95;23.20;;;;;;;11.89;100.00;102062.16;5051847;28;20035;-42
2023/05/14 01:22:03;;;;;;;63.80;25.33;;;;;;;11.89;100.00;102053.22;5054946;28;20033;-43
2023/05/14 01:24:29;;;;;;;67.43;25.02;;;;;;;11.88;100.00;102049.69;5057388;28;20039;-45
2023/05/14 01:26:57;;;;;;;68.97;24.38;;;;;;;11.88;100.00;102051.53;5057757;28;20036;-43
2023/05/14 01:29:25;;;;;;;64.50;24.55;;;;;;;11.85;100.00;102052.66;5066447;28;20072;-42
2023/05/14 01:31:51;;;;;;;;;;;;;;;11.85;100.00;102052.66;5050443;28;20028;-48
2023/05/14 01:34:20;;;;;;;80.28;24.77;;;;;;;11.81;100.00;102046.72;5063133;28;19916;-42
2023/05/14 01:36:47;;;;;;;65.32;23.70;;;;;;;11.83;100.00;102049.28;5051710;28;20021;-45
2023/05/14 01:39:14;;;;;;;52.30;23.80;;;;;;;11.77;100.00;102047.22;5053043;28;20039;-45
2023/05/14 01:41:41;;;;;;;69.35;24.17;;;;;;;11.72;100.00;102041.47;5051470;28;20383;-47
2023/05/14 01:44:08;;;;;;;66.55;23.25;;;;;;;11.69;100.00;102039.94;5039260;28;20017;-43
2023/05/14 01:46:33;;;;;;;58.97;22.57;;;;;;;11.74;100.00;102034.03;5053562;28;20494;-45
2023/05/14 01:48:59;;;;;;;73.22;25.00;;;;;;;11.68;100.00;102032.00;5062935;28;20025;-45
2023/05/14 01:51:24;;;;;;;65.55;24.73;;;;;;;11.67;100.00;102027.63;5067153;28;20445;-43
2023/05/14 01:53:50;;;;;;;66.28;25.75;;;;;;;11.65;100.00;102025.91;5057750;28;20064;-42
2023/05/14 01:56:17;;;;;;;75.22;26.20;;;;;;;11.64;100.00;102035.03;5057748;28;20040;-42
2023/05/14 01:58:43;;;;;;;72.25;25.83;;;;;;;11.70;100.00;102038.09;5066071;28;20035;-42
2023/05/14 02:01:08;;;;;;;64.15;24.92;;;;;;;11.69;100.00;102036.38;5068364;28;20129;-43
2023/05/14 02:03:33;;;;;;;75.38;27.02;;;;;;;11.65;100.00;102039.41;5062974;28;20021;-47
2023/05/14 02:06:00;;;;;;;77.43;26.85;;;;;;;11.61;100.00;102038.03;5058193;28;20036;-44
2023/05/14 02:08:26;;;;;;;66.68;25.17;;;;;;;11.57;100.00;102041.22;5060089;28;20086;-43
2023/05/14 02:10:51;;;;;;;69.18;25.60;;;;;;;11.57;100.00;102042.06;5065097;28;20025;-44
2023/05/14 02:13:16;;;;;;;66.65;24.42;;;;;;;11.55;100.00;102038.66;5058520;28;20091;-46
2023/05/14 02:15:42;;;;;;;64.75;24.35;;;;;;;11.58;100.00;102040.19;5067629;28;20086;-45
2023/05/14 02:18:07;;;;;;;76.60;24.70;;;;;;;11.59;100.00;102037.34;5057816;28;20024;-43
2023/05/14 02:20:33;;;;;;;65.22;22.52;;;;;;;11.61;100.00;102038.03;5061910;28;20510;-43
2023/05/14 02:22:58;;;;;;;63.13;23.25;;;;;;;11.55;100.00;102032.44;5069437;28;20033;-44
2023/05/14 02:25:24;;;;;;;59.13;22.63;;;;;;;11.57;100.00;102025.88;5052711;28;20063;-42
2023/05/14 02:27:49;;;;;;;64.80;23.83;;;;;;;11.53;100.00;102023.66;5067078;28;20083;-44
2023/05/14 02:30:15;;;;;;;56.15;23.10;;;;;;;11.46;100.00;102025.31;5054571;28;20381;-42
2023/05/14 02:32:41;;;;;;;70.68;23.23;;;;;;;11.49;100.00;102017.75;5054054;28;20055;-45
2023/05/14 02:35:07;;;;;;;62.38;20.60;;;;;;;11.48;100.00;102023.28;5040044;28;20416;-43
2023/05/14 02:37:33;;;;;;;63.90;21.02;;;;;;;11.46;100.00;102028.84;5054068;28;20075;-45
2023/05/14 02:39:59;;;;;;;56.90;21.17;;;;;;;11.48;100.00;102023.28;5054116;28;20090;-43
2023/05/14 02:42:24;;;;;;;52.78;21.80;;;;;;;11.42;100.00;102025.59;5058391;28;20029;-43
2023/05/14 02:44:51;;;;;;;53.15;21.77;;;;;;;11.43;100.00;102019.22;5073390;28;20144;-43
2023/05/14 02:47:16;;;;;;;75.97;22.42;;;;;;;11.46;100.00;102020.75;5057501;28;20033;-46
2023/05/14 02:49:41;;;;;;;59.08;20.92;;;;;;;11.42;100.00;102022.06;5072395;28;20500;-44
2023/05/14 02:52:07;;;;;;;70.13;21.67;;;;;;;11.41;100.00;102012.31;5056689;28;20552;-44
2023/05/14 02:54:33;;;;;;;51.63;20.73;;;;;;;11.43;100.00;102007.59;5060729;28;20039;-42
2023/05/14 02:57:00;;;;;;;67.03;21.42;;;;;;;11.39;100.00;102014.31;5053209;28;20031;-45
2023/05/14 02:59:26;;;;;;;64.78;23.65;;;;;;;11.40;100.00;102018.69;5052729;28;20028;-43
2023/05/14 03:01:52;;;;;;;63.33;20.92;;;;;;;11.40;100.00;102016.84;5066550;28;20024;-41
2023/05/14 03:04:17;;;;;;;50.92;22.20;;;;;;;11.39;100.00;102003.53;5056308;28;20073;-43
2023/05/14 03:06:42;;;;;;;71.55;23.83;;;;;;;11.39;100.00;102014.31;5051264;28;20522;-42
2023/05/14 03:09:08;;;;;;;59.88;20.95;;;;;;;11.42;100.00;102004.03;5069372;28;20035;-46
2023/05/14 03:11:33;;;;;;;57.53;23.17;;;;;;;11.41;100.00;102009.59;5061205;28;20101;-43
2023/05/14 03:13:59;;;;;;;61.58;22.67;;;;;;;11.40;100.00;102007.91;5047067;28;20110;-44
2023/05/14 03:16:24;;;;;;;75.75;22.40;;;;;;;11.38;100.00;102004.53;5054943;28;20244;-42
2023/05/14 03:18:49;;;;;;;71.72;25.33;;;;;;;11.34;100.00;102005.84;5067138;28;20064;-47
2023/05/14 03:21:15;;;;;;;59.38;21.65;;;;;;;11.36;100.00;101998.44;5054903;28;20078;-45
2023/05/14 03:23:40;;;;;;;65.68;23.58;;;;;;;11.32;100.00;101991.66;5061667;28;20036;-43
2023/05/14 03:26:06;;;;;;;53.13;21.25;;;;;;;11.33;100.00;101994.22;5062437;28;20063;-44
2023/05/14 03:28:31;;;;;;;70.22;24.00;;;;;;;11.33;100.00;101993.38;5057292;28;20028;-43
2023/05/14 03:30:56;;;;;;;56.70;21.77;;;;;;;11.32;100.00;101991.66;5053761;28;20025;-46
2023/05/14 03:33:22;;;;;;;65.60;22.25;;;;;;;11.35;100.00;101997.63;5060628;28;20112;-44
2023/05/14 03:35:48;;;;;;;56.47;21.48;;;;;;;11.36;100.00;101990.38;5052526;28;20112;-41
2023/05/14 03:38:13;;;;;;;60.83;23.10;;;;;;;11.37;100.00;101984.84;5050121;28;20029;-42
2023/05/14 03:40:38;;;;;;;46.17;21.05;;;;;;;11.33;100.00;101988.84;5058222;28;20075;-41
2023/05/14 03:43:04;;;;;;;64.40;22.90;;;;;;;11.31;100.00;101985.44;5065277;28;20409;-44
2023/05/14 03:45:29;;;;;;;58.50;22.17;;;;;;;11.35;100.00;101991.38;5065701;28;20052;-42
2023/05/14 03:47:55;;;;;;;58.33;21.60;;;;;;;11.38;100.00;101996.44;5053043;28;20020;-46
2023/05/14 03:50:24;;;;;;;69.20;22.42;;;;;;;11.33;100.00;101996.06;5063035;28;20025;-43
2023/05/14 03:52:51;;;;;;;67.78;23.30;;;;;;;11.31;100.00;101996.22;5057185;28;20489;-42
2023/05/14 03:55:18;;;;;;;55.15;22.20;;;;;;;11.27;100.00;101997.56;5069664;28;20073;-46
2023/05/14 03:57:43;;;;;;;68.85;24.35;;;;;;;11.26;100.00;102006.63;5068326;28;20095;-43
2023/05/14 04:00:09;;;;;;;54.80;22.65;;;;;;;11.20;100.00;102000.03;5066000;28;20132;-46
2023/05/14 04:02:34;;;;;;;65.03;23.27;;;;;;;11.24;100.00;102000.53;5064649;28;20032;-44
2023/05/14 04:05:00;;;;;;;67.85;24.83;;;;;;;11.25;100.00;102001.41;5062838;28;20033;-45
2023/05/14 04:07:26;;;;;;;68.38;25.70;;;;;;;11.27;100.00;102004.78;5052672;28;20139;-41
2023/05/14 04:09:51;;;;;;;76.07;27.02;;;;;;;11.33;100.00;102004.16;5060537;28;20063;-44
2023/05/14 04:12:17;;;;;;;85.70;28.42;;;;;;;11.34;100.00;102008.53;5056133;28;20108;-44
2023/05/14 04:14:42;;;;;;;84.90;29.30;;;;;;;11.38;100.00;102008.06;5065441;28;20060;-43
2023/05/14 04:17:07;;;;;;;77.38;31.05;;;;;;;11.35;100.00;101996.78;5053298;28;20500;-41
2023/05/14 04:19:33;;;;;;;68.85;27.13;;;;;;;11.34;100.00;102005.84;5055376;28;20025;-45
2023/05/14 04:21:58;;;;;;;78.22;29.55;;;;;;;11.38;100.00;102001.84;5055805;28;20039;-44
2023/05/14 04:24:24;;;;;;;87.38;29.77;;;;;;;11.38;100.00;102002.69;5054642;28;20032;-45
2023/05/14 04:26:49;;;;;;;83.43;30.30;;;;;;;11.39;100.00;102006.22;5058429;28;20452;-43
2023/05/14 04:29:16;;;;;;;71.47;30.73;;;;;;;11.44;100.00;102006.59;5063506;28;20033;-46
2023/05/14 04:31:41;;;;;;;83.45;29.80;;;;;;;11.42;100.00;102012.13;5061112;28;20039;-43
2023/05/14 04:34:07;;;;;;;86.82;32.55;;;;;;;11.42;100.00;102005.88;5049966;28;20123;-43
2023/05/14 04:36:32;;;;;;;78.25;31.58;;;;;;;11.45;100.00;102012.81;5047357;28;20029;-43
2023/05/14 04:38:58;;;;;;;78.22;30.27;;;;;;;11.48;100.00;102009.78;5057542;28;20116;-41
2023/05/14 04:41:23;;;;;;;83.43;32.05;;;;;;;11.49;100.00;102009.66;5050466;28;20041;-44
2023/05/14 04:43:49;;;;;;;74.45;29.45;;;;;;;11.54;100.00;102018.09;5058038;28;20296;-44
2023/05/14 04:46:14;;;;;;;89.15;32.92;;;;;;;11.53;100.00;102007.47;5056616;28;20434;-44
2023/05/14 04:48:41;;;;;;;76.80;31.55;;;;;;;11.59;100.00;102006.84;5066417;28;20032;-44
2023/05/14 04:51:07;;;;;;;79.78;30.40;;;;;;;11.59;100.00;101996.06;5056061;28;20037;-46
2023/05/14 04:53:33;;;;;;;83.90;33.10;;;;;;;11.60;100.00;101995.88;5061633;28;20043;-45
2023/05/14 04:55:58;;;;;;;87.55;33.33;;;;;;;11.58;100.00;101986.28;5049321;28;20032;-43
2023/05/14 04:58:23;;;;;;;88.80;32.70;;;;;;;11.70;100.00;101994.94;5040422;28;20557;-43
2023/05/14 05:00:49;;;;;;;89.45;34.63;;;;;;;11.68;100.00;102005.03;5065832;28;20101;-45
2023/05/14 05:03:14;;;;;;;81.53;34.08;;;;;;;11.65;100.00;102003.50;5048855;28;20387;-42
2023/05/14 05:05:40;;;;;;;83.03;33.88;;;;;;;11.58;100.00;101997.88;5062674;28;20052;-42
2023/05/14 05:08:05;;;;;;;85.82;35.85;;;;;;;11.54;100.00;102004.63;5053748;28;20096;-43
2023/05/14 05:10:31;;;;;;;85.22;35.92;;;;;;;11.52;100.00;101997.69;5059346;28;20036;-42
2023/05/14 05:12:56;;;;;;;101.25;36.38;;;;;;;11.63;100.00;101998.25;5064715;28;20097;-45
2023/05/14 05:15:21;;;;;;;95.88;38.58;;;;;;;11.69;100.00;102004.88;5063203;28;20037;-45
2023/05/14 05:17:47;;;;;;;94.90;38.38;;;;;;;11.68;100.00;102002.34;5050136;28;20554;-45
2023/05/14 05:20:12;;;;;;;94.80;38.88;;;;;;;11.69;100.00;102009.41;5054061;28;20437;-44
2023/05/14 05:22:38;;;;;;;84.63;37.88;;;;;;;11.72;100.00;102009.13;5058254;28;20116;-45
2023/05/14 05:25:07;;;;;;;98.13;41.80;;;;;;;11.76;100.00;102005.06;5069617;28;20048;-43
2023/05/14 05:27:33;;;;;;;88.40;38.45;;;;;;;11.79;100.00;102010.13;5058764;28;20032;-44
2023/05/14 05:30:00;;;;;;;97.72;38.00;;;;;;;11.68;100.00;102007.72;5070560;28;20032;-46
2023/05/14 05:32:26;;;;;;;84.65;38.58;;;;;;;11.78;100.00;102003.06;5060497;28;20028;-42
2023/05/14 05:34:51;;;;;;;88.47;37.38;;;;;;;11.73;100.00;102010.78;5070530;28;20043;-42
2023/05/14 05:37:17;;;;;;;90.35;37.17;;;;;;;11.75;100.00;102009.63;5071571;28;20032;-43
2023/05/14 05:39:42;;;;;;;87.35;37.45;;;;;;;11.75;100.00;102015.03;5070906;28;20120;-44
2023/05/14 05:42:07;;;;;;;91.45;39.63;;;;;;;11.72;100.00;102011.81;5072700;28;20037;-44
2023/05/14 05:44:33;;;;;;;92.22;39.55;;;;;;;11.82;100.00;102015.19;5070511;28;20020;-44
2023/05/14 05:46:58;;;;;;;78.63;38.53;;;;;;;11.84;100.00;102019.44;5068230;28;20041;-43
2023/05/14 05:49:24;;;;;;;84.50;36.92;;;;;;;11.92;100.00;102007.03;5072752;28;20029;-43
2023/05/14 05:51:49;;;;;;;88.00;36.15;;;;;;;11.96;100.00;102011.94;5053962;28;20103;-45
2023/05/14 05:54:14;;;;;;;79.07;36.28;;;;;;;11.97;100.00;102007.38;5058984;28;20089;-46
2023/05/14 05:56:40;;;;;;;70.00;31.98;;;;;;;11.98;100.00;102004.53;5068933;28;20071;-43
2023/05/14 05:59:06;;;;;;;65.38;30.50;;;;;;;11.96;100.00;102017.34;5035161;28;20375;-44
2023/05/14 06:01:32;;;;;;;68.68;30.20;;;;;;;12.01;100.00;102009.59;5054170;28;20427;-43
2023/05/14 06:03:57;;;;;;;68.43;29.23;;;;;;;12.06;100.00;102007.25;5057060;28;20136;-44
2023/05/14 06:06:23;;;;;;;52.78;26.10;;;;;;;12.13;100.00;102009.31;5061605;28;20478;-41
2023/05/14 06:08:48;;;;;;;55.17;26.23;;;;;;;12.24;100.00;102009.88;5056101;28;20037;-41
2023/05/14 06:11:15;;;;;;;63.70;25.80;;;;;;;12.32;100.00;102009.00;5053752;28;20429;-44
2023/05/14 06:13:41;;;;;;;55.83;24.17;;;;;;;12.32;100.00;102011.72;5052299;28;20044;-44
2023/05/14 06:16:06;;;;;;;49.00;22.60;;;;;;;12.39;100.00;101999.25;5062546;28;20032;-43
2023/05/14 06:18:31;;;;;;;59.45;23.13;;;;;;;12.43;100.00;101995.22;5062124;28;20036;-43
2023/05/14 06:20:58;;;;;;;59.05;24.75;;;;;;;12.50;100.00;102001.63;5061196;28;20040;-42
2023/05/14 06:23:25;;;;;;;55.97;24.17;;;;;;;12.52;100.00;102013.09;5065830;28;20470;-47
2023/05/14 06:25:50;;;;;;;55.72;23.67;;;;;;;12.48;100.00;102016.31;5072806;28;20106;-44
2023/05/14 06:28:16;;;;;;;61.30;23.48;;;;;;;12.61;100.00;102010.41;5065909;28;20098;-43
2023/05/14 06:30:41;;;;;;;55.25;24.70;;;;;;;12.64;100.00;102004.72;5052568;28;20032;-44
2023/05/14 06:33:07;;;;;;;44.30;21.90;;;;;;;12.64;100.00;102008.25;5052225;28;20100;-46
2023/05/14 06:35:33;;;;;;;48.40;22.15;;;;;;;12.63;100.00;102005.69;5052334;28;20025;-45
2023/05/14 06:37:58;;;;;;;51.95;23.52;;;;;;;12.64;100.00;101999.31;5053023;28;20035;-42
2023/05/14 06:40:24;;;;;;;46.97;22.08;;;;;;;12.61;100.00;102015.81;5052042;28;20037;-45
2023/05/14 06:42:49;;;;;;;61.08;24.80;;;;;;;12.74;100.00;102017.03;5050787;28;20129;-43
2023/05/14 06:45:15;;;;;;;51.17;23.27;;;;;;;12.80;100.00;102010.13;5051971;28;20507;-41
2023/05/14 06:47:40;;;;;;;47.53;21.85;;;;;;;12.91;100.00;102000.84;5035506;28;20557;-41
2023/05/14 06:50:06;;;;;;;48.88;20.88;;;;;;;12.96;100.00;102003.88;5052966;28;20035;-45
2023/05/14 06:52:32;;;;;;;43.40;20.73;;;;;;;13.05;100.00;101997.44;5072916;28;20106;-47
2023/05/14 06:54:57;;;;;;;49.72;21.38;;;;;;;13.11;100.00;101993.19;5073152;28;20032;-45
2023/05/14 06:57:22;;;;;;;48.83;18.95;;;;;;;13.21;100.00;101996.56;5071778;28;20089;-44
2023/05/14 06:59:48;;;;;;;53.78;20.15;;;;;;;13.23;100.00;101999.97;5072509;28;20056;-43
2023/05/14 07:02:13;;;;;;;53.90;20.75;;;;;;;13.29;100.00;101985.78;5072890;28;20502;-41
2023/05/14 07:04:40;;;;;;;47.70;21.58;;;;;;;13.40;100.00;101989.97;5072752;28;20028;-47
2023/05/14 07:07:05;;;;;;;42.13;20.05;;;;;;;13.48;100.00;101986.41;5072737;28;20108;-41
2023/05/14 07:09:30;;;;;;;51.60;21.25;;;;;;;13.53;100.00;101989.44;5070995;28;20028;-42
2023/05/14 07:11:56;;;;;;;48.88;18.67;;;;;;;13.60;100.00;101983.16;5072385;28;20347;-47
2023/05/14 07:14:21;;;;;;;39.10;17.45;;;;;;;13.96;100.00;101974.56;5072011;28;20025;-44
2023/05/14 07:16:46;;;;;;;45.60;19.05;;;;;;;14.21;100.00;101972.56;5071013;28;20474;-43
2023/05/14 07:19:13;;;;;;;39.42;15.90;;;;;;;14.34;100.00;101971.16;5071173;28;20099;-44
2023/05/14 07:21:39;;;;;;;47.15;15.93;;;;;;;14.46;100.00;101965.13;5072946;28;20056;-43
2023/05/14 07:24:04;;;;;;;37.30;15.25;;;;;;;14.66;100.00;101968.22;5072659;28;20041;-44
2023/05/14 07:26:30;;;;;;;30.90;15.07;;;;;;;14.82;100.00;101952.84;5054440;28;20029;-42
2023/05/14 07:28:56;;;;;;;33.25;13.98;;;;;;;14.87;100.00;101961.28;5054759;28;20032;-45
2023/05/14 07:31:21;;;;;;;37.97;15.27;;;;;;;14.96;100.00;101959.38;5072538;28;20028;-43
2023/05/14 07:33:46;;;;;;;35.75;14.35;;;;;;;14.94;100.00;101956.81;5072966;28;20028;-44
2023/05/14 07:36:12;;;;;;;35.50;16.55;;;;;;;14.83;100.00;101952.69;5071231;28;20027;-47
2023/05/14 07:38:37;;;;;;;29.45;14.35;;;;;;;14.89;100.00;101951.09;5072891;28;20024;-45
2023/05/14 07:41:03;;;;;;;30.83;14.73;;;;;;;14.93;100.00;101949.72;5072309;28;20020;-42
2023/05/14 07:43:28;;;;;;;47.45;15.07;;;;;;;15.04;100.00;101954.69;5071252;28;20390;-43
2023/05/14 07:45:54;;;;;;;36.05;14.60;;;;;;;15.15;100.00;101958.81;5072141;28;20025;-41
2023/05/14 07:48:20;;;;;;;30.90;13.88;;;;;;;15.15;100.00;101954.25;5053513;28;20029;-42
2023/05/14 07:50:45;;;;;;;35.33;13.38;;;;;;;15.40;100.00;101948.53;5070677;28;20443;-46
2023/05/14 07:53:11;;;;;;;36.50;13.18;;;;;;;15.51;100.00;101937.25;5071928;28;20494;-42
2023/05/14 07:55:36;;;;;;;32.33;13.75;;;;;;;16.09;100.00;101939.22;5072025;28;20411;-44
2023/05/14 07:58:01;;;;;;;34.65;12.02;;;;;;;16.57;100.00;101942.25;5072291;28;20047;-43
2023/05/14 08:00:27;;;;;;;21.77;9.57;;;;;;;17.31;100.00;101944.53;5071794;28;20079;-44
2023/05/14 08:02:52;;;;;;;23.38;9.45;;;;;;;17.37;100.00;101937.44;5058097;28;20568;-46
2023/05/14 08:05:17;;;;;;;17.83;9.52;;;;;;;17.59;100.00;101940.91;5048531;28;20028;-43
2023/05/14 08:07:43;;;;;;;21.98;8.13;;;;;;;18.06;100.00;101931.06;5049885;28;20085;-44
2023/05/14 08:10:09;;;;;;;26.67;7.85;;;;;;;18.72;100.00;101933.94;5050195;28;20346;-42
2023/05/14 08:12:34;;;;;;;27.27;7.55;;;;;;;19.59;100.00;101934.66;5049829;28;20025;-44
2023/05/14 08:15:01;;;;;;;21.38;7.78;;;;;;;19.91;100.00;101935.59;5050579;28;20025;-42
2023/05/14 08:17:28;;;;;;;23.17;7.97;;;;;;;19.94;100.00;101932.44;5050103;28;20025;-42
2023/05/14 08:19:54;;;;;;;;;;;;;;;20.43;100.00;101926.44;5049858;28;20029;-44
2023/05/14 08:22:19;;;;;;;22.42;7.32;;;;;;;20.61;100.00;101932.84;5049544;28;19912;-42
2023/05/14 08:24:44;;;;;;;27.27;7.43;;;;;;;20.65;100.00;101930.53;5050607;28;20491;-44
2023/05/14 08:27:10;;;;;;;17.13;6.65;;;;;;;21.25;100.00;101927.25;5050584;28;20029;-46
2023/05/14 08:29:35;;;;;;;23.05;6.95;;;;;;;21.52;96.97;101925.09;5050509;28;20033;-44
2023/05/14 08:32:01;;;;;;;21.48;6.68;;;;;;;21.46;98.95;101926.00;5050341;28;20108;-43
2023/05/14 08:34:27;;;;;;;28.33;6.70;;;;;;;21.90;95.07;101926.72;5049433;28;20400;-41
2023/05/14 08:36:52;;;;;;;16.48;5.68;;;;;;;22.46;92.08;101922.78;5050344;28;20051;-41
2023/05/14 08:39:17;;;;;;;27.60;5.80;;;;;;;22.14;92.42;101920.28;5049288;28;20099;-41
2023/05/14 08:41:44;;;;;;;19.02;6.15;;;;;;;22.37;91.03;101913.22;5050302;28;20511;-45
2023/05/14 08:44:24;;;;;;;24.90;6.47;;;;;;;22.47;90.04;101910.72;5050097;28;20044;-43
2023/05/14 08:46:50;;;;;;;28.75;6.55;;;;;;;22.10;93.04;101915.47;5050227;28;20072;-45
2023/05/14 08:49:33;;;;;;;19.08;5.68;;;;;;;22.14;90.48;101914.78;5050188;28;20040;-43
2023/05/14 08:51:59;;;;;;;21.35;6.18;;;;;;;22.26;90.55;101914.00;5050255;28;20112;-43
2023/05/14 08:54:25;;;;;;;20.40;6.18;;;;;;;22.09;88.63;101913.78;5032357;28;20025;-41
2023/05/14 08:56:52;;;;;;;17.33;5.23;;;;;;;22.37;88.65;101906.88;5048131;28;20033;-41
2023/05/14 08:59:18;;;;;;;22.73;5.88;;;;;;;22.29;87.38;101908.06;5048816;28;20514;-42
2023/05/14 09:01:46;;;;;;;21.70;5.70;;;;;;;22.46;90.55;101900.84;5049008;28;20052;-45
2023/05/14 09:04:14;;;;;;;18.73;6.28;;;;;;;22.93;86.35;101894.53;5048286;28;20043;-46
2023/05/14 09:06:41;;;;;;;19.55;5.03;;;;;;;23.40;83.75;101902.75;5048735;28;20029;-42
2023/05/14 09:09:06;;;;;;;15.27;4.70;;;;;;;23.79;82.62;101895.63;5059089;28;20386;-47
2023/05/14 09:11:32;;;;;;;20.33;5.53;;;;;;;23.41;84.82;101902.53;5063467;28;20274;-45
2023/05/14 09:13:57;;;;;;;15.18;5.00;;;;;;;22.58;86.38;101898.94;5057888;28;20352;-47
2023/05/14 09:16:24;;;;;;;17.65;4.55;;;;;;;22.45;88.21;101899.16;5063762;28;20036;-43
2023/05/14 09:18:50;;;;;;;23.70;5.28;;;;;;;22.48;88.50;101898.66;5063471;28;20036;-41
2023/05/14 09:21:16;;;;;;;13.38;5.05;;;;;;;22.80;87.75;101887.38;5066917;28;20029;-41
2023/05/14 09:23:43;;;;;;;17.35;5.22;;;;;;;22.51;87.36;101890.00;5060735;28;20029;-46
2023/05/14 09:26:09;;;;;;;16.48;5.35;;;;;;;21.93;90.33;101896.09;5061059;28;20647;-46
2023/05/14 09:28:34;;;;;;;22.80;5.90;;;;;;;22.01;90.40;101893.06;5066953;28;20028;-46
2023/05/14 09:31:01;;;;;;;12.82;4.63;;;;;;;23.41;83.01;101899.78;5045529;28;20051;-44
2023/05/14 09:33:27;;;;;;;17.27;5.28;;;;;;;23.31;83.46;101895.97;5048397;28;20090;-41
2023/05/14 09:35:59;;;;;;;17.83;4.97;;;;;;;23.43;83.18;101891.28;5053725;28;20131;-43
2023/05/14 09:38:31;;;;;;;12.10;5.30;;;;;;;23.05;82.64;101894.56;5040292;28;20044;-45
2023/05/14 09:40:58;;;;;;;14.30;3.92;;;;;;;23.37;82.07;101887.59;5068292;28;20048;-44
2023/05/14 09:43:23;;;;;;;15.82;4.40;;;;;;;23.93;80.84;101884.34;5068806;28;20107;-44
2023/05/14 09:45:48;;;;;;;13.90;4.63;;;;;;;24.13;78.55;101884.72;5068614;28;20116;-43
2023/05/14 09:48:14;;;;;;;12.00;4.43;;;;;;;24.21;76.62;101881.56;5038140;28;20113;-42
2023/05/14 09:50:44;;;;;;;17.95;5.20;;;;;;;24.08;79.88;101871.69;5049936;28;20038;-46
2023/05/14 09:53:10;;;;;;;18.15;4.97;;;;;;;23.92;79.22;101869.75;5061202;28;20133;-44
2023/05/14 09:55:36;;;;;;;17.33;4.57;;;;;;;23.69;81.33;101875.31;5060484;28;20107;-41
2023/05/14 09:58:02;;;;;;;20.15;4.95;;;;;;;24.32;76.69;101883.41;5048996;28;20032;-46
2023/05/14 10:00:30;;;;;;;17.90;5.30;;;;;;;23.40;77.64;101872.53;5067996;28;20159;-43
2023/05/14 10:02:57;;;;;;;14.10;4.80;;;;;;;23.53;80.03;101876.94;5049956;28;20028;-43
2023/05/14 10:05:23;;;;;;;17.77;4.88;;;;;;;24.01;77.98;101873.78;5049621;28;20028;-43
2023/05/14 10:07:50;;;;;;;16.05;4.38;;;;;;;23.62;80.51;101880.97;5067162;28;20125;-47
2023/05/14 10:10:18;;;;;;;17.45;4.68;;;;;;;23.61;80.58;101874.63;5066566;28;20036;-43
2023/05/14 10:12:57;;;;;;;15.07;4.32;;;;;;;24.25;78.37;101871.75;5068182;28;20032;-48
2023/05/14 10:15:27;;;;;;;15.55;4.85;;;;;;;24.50;78.52;101867.78;5065852;28;20423;-45
2023/05/14 10:17:56;;;;;;;14.27;4.82;;;;;;;24.86;74.38;101871.91;5069144;28;20039;-45
2023/05/14 10:20:22;;;;;;;14.25;5.20;;;;;;;24.45;76.57;101864.94;5053450;28;20140;-43
2023/05/14 10:22:47;;;;;;;24.17;5.68;;;;;;;24.22;76.69;101866.72;5069177;28;20035;-41
2023/05/14 10:25:13;;;;;;;16.00;4.63;;;;;;;24.37;76.03;101868.06;5070401;28;20040;-45
2023/05/14 10:27:39;;;;;;;16.90;5.38;;;;;;;24.15;77.13;101863.31;5053010;28;20043;-46
2023/05/14 10:30:10;;;;;;;13.50;5.70;;;;;;;23.65;79.15;101855.75;5071254;28;20031;-42
2023/05/14 10:32:36;;;;;;;14.77;4.57;;;;;;;24.07;79.93;101864.53;5069369;28;20048;-46
2023/05/14 10:35:15;;;;;;;13.95;5.10;;;;;;;23.80;80.77;101858.84;5069315;28;20123;-47
2023/05/14 10:37:43;;;;;;;16.40;4.82;;;;;;;23.88;79.02;101860.31;5070598;28;20406;-47
2023/05/14 10:40:08;;;;;;;15.13;4.80;;;;;;;23.27;80.28;101848.91;5070561;28;20082;-44
2023/05/14 10:42:36;;;;;;;17.65;5.03;;;;;;;23.40;81.28;101851.38;5070593;28;20032;-44
2023/05/14 10:45:06;;;;;;;;;;;;;;;23.38;80.82;101849.97;5069501;28;20472;-43
2023/05/14 10:47:31;;;;;;;15.68;4.90;;;;;;;23.58;81.15;101846.81;5070664;28;20236;-46
2023/05/14 10:49:59;;;;;;;13.70;4.30;;;;;;;23.35;79.59;101851.28;5070567;28;20086;-44
2023/05/14 10:52:25;;;;;;;13.32;4.78;;;;;;;23.07;83.53;101845.75;5052375;28;20419;-46
2023/05/14 10:54:55;;;;;;;15.50;4.63;;;;;;;22.81;83.67;101845.16;5068563;28;20033;-47
2023/05/14 10:57:22;;;;;;;14.75;4.85;;;;;;;22.94;84.72;101839.41;5069038;28;20290;-45
2023/05/14 10:59:51;;;;;;;16.45;4.53;;;;;;;22.60;90.17;101832.03;5070012;28;20055;-45
2023/05/14 11:02:38;;;;;;;11.95;4.18;;;;;;;23.13;82.82;101833.78;5068943;28;20037;-49